sensor_id;sensor_type;location;lat;lon;timestamp;pressure;altitude;pressure_sealevel;temperature;humidity
76609;BME280;65928;53.936;27.540;2022-12-20T00:00:42;99951.31;;;-9.71;64.14
76609;BME280;65928;53.936;27.540;2022-12-20T00:03:08;100342.16;;;-7.55;64.91
76609;BME280;65928;53.936;27.540;2022-12-20T00:05:37;99951.78;;;-9.60;63.87
76609;BME280;65928;53.936;27.540;2022-12-20T00:08:04;99948.28;;;-9.62;64.09
76609;BME280;65928;53.936;27.540;2022-12-20T00:10:30;99938.69;;;-9.87;64.90
76609;BME280;65928;53.936;27.540;2022-12-20T00:12:55;100292.47;;;-7.78;65.25
76609;BME280;65928;53.936;27.540;2022-12-20T00:15:21;99925.69;;;-9.72;65.43
76609;BME280;65928;53.936;27.540;2022-12-20T00:17:46;100284.19;;;-7.71;65.20
76609;BME280;65928;53.936;27.540;2022-12-20T00:20:12;99918.28;;;-9.66;65.54
76609;BME280;65928;53.936;27.540;2022-12-20T00:22:37;100284.41;;;-7.23;64.75
76609;BME280;65928;53.936;27.540;2022-12-20T00:25:04;100252.34;;;-7.55;64.56
76609;BME280;65928;53.936;27.540;2022-12-20T00:27:29;100281.03;;;-7.22;65.04
76609;BME280;65928;53.936;27.540;2022-12-20T00:29:55;100260.59;;;-7.42;64.90
76609;BME280;65928;53.936;27.540;2022-12-20T00:32:20;100272.41;;;-7.02;64.63
76609;BME280;65928;53.936;27.540;2022-12-20T00:34:46;100275.91;;;-7.00;64.14
76609;BME280;65928;53.936;27.540;2022-12-20T00:37:12;100244.56;;;-7.14;64.27
76609;BME280;65928;53.936;27.540;2022-12-20T00:39:37;99871.53;;;-9.00;63.90
76609;BME280;65928;53.936;27.540;2022-12-20T00:42:02;100105.00;;;-7.84;64.54
76609;BME280;65928;53.936;27.540;2022-12-20T00:44:28;100247.94;;;-6.93;64.43
76609;BME280;65928;53.936;27.540;2022-12-20T00:46:54;99880.66;;;-9.07;64.01
76609;BME280;65928;53.936;27.540;2022-12-20T00:49:19;100217.97;;;-7.16;64.67
76609;BME280;65928;53.936;27.540;2022-12-20T00:51:45;100221.56;;;-7.11;64.73
76609;BME280;65928;53.936;27.540;2022-12-20T00:54:10;100218.78;;;-6.71;64.38
76609;BME280;65928;53.936;27.540;2022-12-20T00:56:36;100212.81;;;-6.70;64.16
76609;BME280;65928;53.936;27.540;2022-12-20T00:59:01;100211.66;;;-7.24;64.82
76609;BME280;65928;53.936;27.540;2022-12-20T01:01:30;99834.81;;;-9.01;65.13
76609;BME280;65928;53.936;27.540;2022-12-20T01:03:56;100177.44;;;-7.01;65.27
76609;BME280;65928;53.936;27.540;2022-12-20T01:06:22;99846.66;;;-8.82;65.01
76609;BME280;65928;53.936;27.540;2022-12-20T01:08:56;99791.44;;;-8.98;64.72
76609;BME280;65928;53.936;27.540;2022-12-20T01:11:27;100150.38;;;-6.91;65.19
76609;BME280;65928;53.936;27.540;2022-12-20T01:13:55;100141.66;;;-6.73;64.88
76609;BME280;65928;53.936;27.540;2022-12-20T01:16:30;100207.94;;;-6.86;64.61
76609;BME280;65928;53.936;27.540;2022-12-20T01:18:56;99810.97;;;-8.78;64.77
76609;BME280;65928;53.936;27.540;2022-12-20T01:21:24;100124.88;;;-6.87;64.90
76609;BME280;65928;53.936;27.540;2022-12-20T01:23:50;100049.16;;;-7.45;65.02
76609;BME280;65928;53.936;27.540;2022-12-20T01:26:18;99747.31;;;-8.69;64.26
76609;BME280;65928;53.936;27.540;2022-12-20T01:28:45;100058.13;;;-6.85;64.33
76609;BME280;65928;53.936;27.540;2022-12-20T01:31:15;99734.72;;;-8.63;64.56
76609;BME280;65928;53.936;27.540;2022-12-20T01:33:42;100126.28;;;-6.21;63.83
76609;BME280;65928;53.936;27.540;2022-12-20T01:36:12;100104.34;;;-6.36;63.93
76609;BME280;65928;53.936;27.540;2022-12-20T01:38:38;100110.59;;;-6.28;64.66
76609;BME280;65928;53.936;27.540;2022-12-20T01:41:04;99996.06;;;-6.97;64.71
76609;BME280;65928;53.936;27.540;2022-12-20T01:43:54;100114.53;;;-6.39;64.74
76609;BME280;65928;53.936;27.540;2022-12-20T01:46:27;100094.53;;;-6.21;64.26
76609;BME280;65928;53.936;27.540;2022-12-20T01:48:58;100060.19;;;-6.23;64.64
76609;BME280;65928;53.936;27.540;2022-12-20T01:51:24;99947.69;;;-7.10;64.75
76609;BME280;65928;53.936;27.540;2022-12-20T01:54:00;100066.00;;;-6.29;64.45
76609;BME280;65928;53.936;27.540;2022-12-20T01:56:27;100032.16;;;-6.43;64.65
76609;BME280;65928;53.936;27.540;2022-12-20T01:58:54;100062.06;;;-5.91;64.70
76609;BME280;65928;53.936;27.540;2022-12-20T02:01:22;100066.72;;;-5.78;63.59
76609;BME280;65928;53.936;27.540;2022-12-20T02:03:49;100037.84;;;-5.68;63.88
76609;BME280;65928;53.936;27.540;2022-12-20T02:06:21;100002.16;;;-5.87;63.65
76609;BME280;65928;53.936;27.540;2022-12-20T02:08:48;99690.06;;;-7.94;64.19
76609;BME280;65928;53.936;27.540;2022-12-20T02:22:28;100079.97;;;-5.94;64.56
76609;BME280;65928;53.936;27.540;2022-12-20T02:31:09;99659.84;;;-7.49;63.97
76609;BME280;65928;53.936;27.540;2022-12-20T02:33:36;99999.03;;;-5.46;64.19
76609;BME280;65928;53.936;27.540;2022-12-20T02:36:03;99703.03;;;-7.06;64.63
76609;BME280;65928;53.936;27.540;2022-12-20T02:38:32;99988.38;;;-5.89;64.58
76609;BME280;65928;53.936;27.540;2022-12-20T02:41:09;99947.38;;;-6.13;64.56
76609;BME280;65928;53.936;27.540;2022-12-20T02:43:37;99651.25;;;-7.50;64.27
76609;BME280;65928;53.936;27.540;2022-12-20T02:46:24;99969.91;;;-5.43;64.34
76609;BME280;65928;53.936;27.540;2022-12-20T02:48:51;99614.69;;;-7.44;64.38
76609;BME280;65928;53.936;27.540;2022-12-20T02:51:22;99969.16;;;-5.39;64.69
76609;BME280;65928;53.936;27.540;2022-12-20T02:53:47;99658.44;;;-7.10;64.87
76609;BME280;65928;53.936;27.540;2022-12-20T02:56:30;99580.03;;;-7.58;65.04
76609;BME280;65928;53.936;27.540;2022-12-20T02:59:26;99936.94;;;-5.57;65.43
76609;BME280;65928;53.936;27.540;2022-12-20T03:01:54;99909.22;;;-5.34;65.39
76609;BME280;65928;53.936;27.540;2022-12-20T03:04:25;99814.63;;;-5.75;64.38
76609;BME280;65928;53.936;27.540;2022-12-20T03:07:24;99918.19;;;-5.20;64.15
76609;BME280;65928;53.936;27.540;2022-12-20T03:09:49;99602.38;;;-7.24;64.99
76609;BME280;65928;53.936;27.540;2022-12-20T03:12:14;99790.72;;;-6.04;64.98
76609;BME280;65928;53.936;27.540;2022-12-20T03:14:41;99913.38;;;-5.06;64.35
76609;BME280;65928;53.936;27.540;2022-12-20T03:17:07;99856.91;;;-5.33;64.02
76609;BME280;65928;53.936;27.540;2022-12-20T03:19:33;99871.69;;;-5.59;65.02
76609;BME280;65928;53.936;27.540;2022-12-20T03:21:59;99541.63;;;-7.25;64.88
76609;BME280;65928;53.936;27.540;2022-12-20T03:24:25;99875.09;;;-5.60;65.43
76609;BME280;65928;53.936;27.540;2022-12-20T03:26:51;99866.88;;;-5.11;64.94
76609;BME280;65928;53.936;27.540;2022-12-20T03:29:16;99904.09;;;-5.00;66.07
76609;BME280;65928;53.936;27.540;2022-12-20T03:31:42;99886.59;;;-4.77;64.36
76609;BME280;65928;53.936;27.540;2022-12-20T03:34:07;99834.28;;;-5.10;64.63
76609;BME280;65928;53.936;27.540;2022-12-20T03:36:33;99563.13;;;-6.57;64.30
76609;BME280;65928;53.936;27.540;2022-12-20T03:38:59;99470.84;;;-7.16;64.60
76609;BME280;65928;53.936;27.540;2022-12-20T03:41:24;99630.94;;;-6.17;63.51
76609;BME280;65928;53.936;27.540;2022-12-20T03:43:50;99527.06;;;-6.61;64.68
76609;BME280;65928;53.936;27.540;2022-12-20T03:46:16;99598.41;;;-6.15;64.44
76609;BME280;65928;53.936;27.540;2022-12-20T03:48:42;99889.16;;;-4.41;64.69
76609;BME280;65928;53.936;27.540;2022-12-20T03:51:07;99879.88;;;-4.33;64.76
76609;BME280;65928;53.936;27.540;2022-12-20T03:53:33;99870.34;;;-4.36;64.42
76609;BME280;65928;53.936;27.540;2022-12-20T03:55:58;99845.16;;;-4.49;65.40
76609;BME280;65928;53.936;27.540;2022-12-20T03:58:25;99489.50;;;-6.55;64.56
76609;BME280;65928;53.936;27.540;2022-12-20T04:00:50;99770.13;;;-5.00;64.27
76609;BME280;65928;53.936;27.540;2022-12-20T04:03:16;99940.28;;;-4.60;65.61
76609;BME280;65928;53.936;27.540;2022-12-20T04:05:41;99535.88;;;-6.50;65.07
76609;BME280;65928;53.936;27.540;2022-12-20T04:08:07;99784.97;;;-5.25;65.94
76609;BME280;65928;53.936;27.540;2022-12-20T04:10:37;99916.53;;;-4.46;65.98
76609;BME280;65928;53.936;27.540;2022-12-20T04:13:22;99500.13;;;-6.75;65.33
76609;BME280;65928;53.936;27.540;2022-12-20T04:15:48;99564.00;;;-6.56;66.52
76609;BME280;65928;53.936;27.540;2022-12-20T04:18:13;99512.84;;;-6.47;65.65
76609;BME280;65928;53.936;27.540;2022-12-20T04:20:39;99849.44;;;-4.48;65.82
76609;BME280;65928;53.936;27.540;2022-12-20T04:23:04;99780.19;;;-4.72;65.54
76609;BME280;65928;53.936;27.540;2022-12-20T04:25:30;99444.38;;;-6.44;65.20
76609;BME280;65928;53.936;27.540;2022-12-20T04:27:55;99813.22;;;-4.12;65.30
76609;BME280;65928;53.936;27.540;2022-12-20T04:30:21;99423.66;;;-6.51;64.59
76609;BME280;65928;53.936;27.540;2022-12-20T04:32:46;99585.47;;;-5.42;65.52
76609;BME280;65928;53.936;27.540;2022-12-20T04:35:11;99796.50;;;-4.31;65.43
76609;BME280;65928;53.936;27.540;2022-12-20T04:37:37;99800.81;;;-4.31;65.33
76609;BME280;65928;53.936;27.540;2022-12-20T04:40:03;99479.59;;;-6.02;65.17
76609;BME280;65928;53.936;27.540;2022-12-20T04:42:29;99779.81;;;-4.49;65.73
76609;BME280;65928;53.936;27.540;2022-12-20T04:44:54;99790.59;;;-4.25;65.07
76609;BME280;65928;53.936;27.540;2022-12-20T04:47:20;99788.19;;;-4.18;64.51
76609;BME280;65928;53.936;27.540;2022-12-20T04:49:46;99790.84;;;-4.13;65.50
76609;BME280;65928;53.936;27.540;2022-12-20T04:52:11;99793.78;;;-3.95;64.34
76609;BME280;65928;53.936;27.540;2022-12-20T04:54:57;99793.00;;;-3.90;64.60
76609;BME280;65928;53.936;27.540;2022-12-20T04:57:22;99799.47;;;-4.11;64.55
76609;BME280;65928;53.936;27.540;2022-12-20T04:59:48;99405.41;;;-6.23;65.29
76609;BME280;65928;53.936;27.540;2022-12-20T05:02:13;99758.78;;;-4.26;65.14
76609;BME280;65928;53.936;27.540;2022-12-20T05:04:39;99779.59;;;-3.71;65.07
76609;BME280;65928;53.936;27.540;2022-12-20T05:07:04;99493.34;;;-5.57;64.43
76609;BME280;65928;53.936;27.540;2022-12-20T05:09:30;99568.66;;;-5.25;65.46
76609;BME280;65928;53.936;27.540;2022-12-20T05:11:55;99407.38;;;-6.10;65.16
76609;BME280;65928;53.936;27.540;2022-12-20T05:14:21;99400.19;;;-5.84;64.87
76609;BME280;65928;53.936;27.540;2022-12-20T05:16:46;99649.09;;;-4.52;64.97
76609;BME280;65928;53.936;27.540;2022-12-20T05:19:11;99735.78;;;-3.66;65.15
76609;BME280;65928;53.936;27.540;2022-12-20T05:21:37;99706.72;;;-4.04;65.69
76609;BME280;65928;53.936;27.540;2022-12-20T05:24:21;99705.22;;;-3.91;65.62
76609;BME280;65928;53.936;27.540;2022-12-20T05:27:05;99742.28;;;-3.88;64.27
76609;BME280;65928;53.936;27.540;2022-12-20T05:29:30;99789.44;;;-3.50;65.05
76609;BME280;65928;53.936;27.540;2022-12-20T05:31:56;99382.22;;;-5.81;65.58
76609;BME280;65928;53.936;27.540;2022-12-20T05:34:21;99722.19;;;-3.56;66.08
76609;BME280;65928;53.936;27.540;2022-12-20T05:36:47;99426.09;;;-5.29;65.68
76609;BME280;65928;53.936;27.540;2022-12-20T05:39:12;99719.72;;;-3.47;66.27
76609;BME280;65928;53.936;27.540;2022-12-20T05:41:42;99320.22;;;-5.47;65.20
76609;BME280;65928;53.936;27.540;2022-12-20T05:44:08;99668.88;;;-3.49;64.38
76609;BME280;65928;53.936;27.540;2022-12-20T05:46:33;99718.31;;;-3.27;64.98
76609;BME280;65928;53.936;27.540;2022-12-20T05:48:58;99714.78;;;-3.32;65.64
76609;BME280;65928;53.936;27.540;2022-12-20T05:51:24;99672.22;;;-3.56;66.32
76609;BME280;65928;53.936;27.540;2022-12-20T05:53:50;99304.66;;;-5.55;66.34
76609;BME280;65928;53.936;27.540;2022-12-20T05:56:17;99689.44;;;-3.57;66.99
76609;BME280;65928;53.936;27.540;2022-12-20T05:58:42;99341.25;;;-5.71;67.22
76609;BME280;65928;53.936;27.540;2022-12-20T06:01:09;99333.09;;;-5.47;67.86
76609;BME280;65928;53.936;27.540;2022-12-20T06:03:35;99359.97;;;-5.31;67.82
76609;BME280;65928;53.936;27.540;2022-12-20T06:06:00;99669.06;;;-3.39;67.67
76609;BME280;65928;53.936;27.540;2022-12-20T06:08:26;99349.31;;;-4.99;66.67
76609;BME280;65928;53.936;27.540;2022-12-20T06:10:51;99315.41;;;-5.26;67.14
76609;BME280;65928;53.936;27.540;2022-12-20T06:13:17;99661.72;;;-3.09;67.11
76609;BME280;65928;53.936;27.540;2022-12-20T06:15:42;99314.91;;;-5.05;66.80
76609;BME280;65928;53.936;27.540;2022-12-20T06:18:08;99663.63;;;-2.94;67.15
76609;BME280;65928;53.936;27.540;2022-12-20T06:20:34;99529.53;;;-4.05;67.14
76609;BME280;65928;53.936;27.540;2022-12-20T06:23:00;99360.00;;;-4.75;66.84
76609;BME280;65928;53.936;27.540;2022-12-20T06:25:27;99382.59;;;-4.59;67.24
76609;BME280;65928;53.936;27.540;2022-12-20T06:27:52;99649.47;;;-3.22;68.23
76609;BME280;65928;53.936;27.540;2022-12-20T06:30:18;99380.16;;;-4.48;67.46
76609;BME280;65928;53.936;27.540;2022-12-20T06:32:44;99291.84;;;-4.96;66.97
76609;BME280;65928;53.936;27.540;2022-12-20T06:35:09;99598.53;;;-3.32;67.33
76609;BME280;65928;53.936;27.540;2022-12-20T06:37:35;99576.97;;;-3.34;67.92
76609;BME280;65928;53.936;27.540;2022-12-20T06:40:02;99550.16;;;-3.45;67.98
76609;BME280;65928;53.936;27.540;2022-12-20T06:42:27;99275.78;;;-5.35;68.54
76609;BME280;65928;53.936;27.540;2022-12-20T06:44:53;99620.50;;;-2.98;68.35
76609;BME280;65928;53.936;27.540;2022-12-20T06:47:19;99250.91;;;-5.35;69.21
76609;BME280;65928;53.936;27.540;2022-12-20T06:49:44;99605.31;;;-3.40;69.94
76609;BME280;65928;53.936;27.540;2022-12-20T06:52:09;99615.19;;;-3.09;69.75
76609;BME280;65928;53.936;27.540;2022-12-20T06:54:35;99615.69;;;-3.38;70.30
76609;BME280;65928;53.936;27.540;2022-12-20T06:57:00;99275.00;;;-5.30;70.39
76609;BME280;65928;53.936;27.540;2022-12-20T06:59:26;99609.00;;;-3.23;70.54
76609;BME280;65928;53.936;27.540;2022-12-20T07:01:51;99247.34;;;-5.43;71.26
76609;BME280;65928;53.936;27.540;2022-12-20T07:04:17;99573.69;;;-3.22;71.22
76609;BME280;65928;53.936;27.540;2022-12-20T07:06:42;99227.00;;;-5.26;70.68
76609;BME280;65928;53.936;27.540;2022-12-20T07:09:08;99585.03;;;-3.10;71.50
76609;BME280;65928;53.936;27.540;2022-12-20T07:11:33;99234.09;;;-5.10;70.19
76609;BME280;65928;53.936;27.540;2022-12-20T07:13:59;99275.78;;;-4.79;70.94
76609;BME280;65928;53.936;27.540;2022-12-20T07:16:25;99456.03;;;-3.70;71.17
76609;BME280;65928;53.936;27.540;2022-12-20T07:18:52;99471.03;;;-3.38;70.31
76609;BME280;65928;53.936;27.540;2022-12-20T07:21:18;99562.91;;;-2.87;70.60
76609;BME280;65928;53.936;27.540;2022-12-20T07:23:45;99306.16;;;-4.55;70.38
76609;BME280;65928;53.936;27.540;2022-12-20T07:26:11;99234.06;;;-4.46;69.46
76609;BME280;65928;53.936;27.540;2022-12-20T07:28:39;99582.59;;;-2.98;70.98
76609;BME280;65928;53.936;27.540;2022-12-20T07:31:04;99534.44;;;-2.90;71.22
76609;BME280;65928;53.936;27.540;2022-12-20T07:33:31;99215.53;;;-4.85;70.85
76609;BME280;65928;53.936;27.540;2022-12-20T07:36:04;99511.72;;;-3.19;71.13
76609;BME280;65928;53.936;27.540;2022-12-20T07:38:30;99256.22;;;-4.60;72.50
76609;BME280;65928;53.936;27.540;2022-12-20T07:40:55;99511.56;;;-3.33;72.25
76609;BME280;65928;53.936;27.540;2022-12-20T07:43:21;99568.41;;;-2.52;71.82
76609;BME280;65928;53.936;27.540;2022-12-20T07:45:47;99599.81;;;-2.98;72.26
76609;BME280;65928;53.936;27.540;2022-12-20T07:48:13;99584.53;;;-2.77;71.22
76609;BME280;65928;53.936;27.540;2022-12-20T07:50:40;99492.22;;;-2.87;70.83
76609;BME280;65928;53.936;27.540;2022-12-20T07:53:06;99199.16;;;-4.92;71.86
76609;BME280;65928;53.936;27.540;2022-12-20T07:55:33;99488.53;;;-3.15;71.63
76609;BME280;65928;53.936;27.540;2022-12-20T07:58:04;99474.66;;;-3.18;71.84
76609;BME280;65928;53.936;27.540;2022-12-20T08:00:31;99201.50;;;-4.39;71.01
76609;BME280;65928;53.936;27.540;2022-12-20T08:03:07;99203.25;;;-4.35;70.09
76609;BME280;65928;53.936;27.540;2022-12-20T08:05:38;99452.78;;;-2.66;68.95
76609;BME280;65928;53.936;27.540;2022-12-20T08:08:05;99201.59;;;-4.29;70.38
76609;BME280;65928;53.936;27.540;2022-12-20T08:10:31;99536.81;;;-2.16;70.37
76609;BME280;65928;53.936;27.540;2022-12-20T08:12:57;99210.72;;;-3.71;70.02
76609;BME280;65928;53.936;27.540;2022-12-20T08:15:24;99547.13;;;-2.24;71.18
76609;BME280;65928;53.936;27.540;2022-12-20T08:17:49;99581.03;;;-1.88;69.75
76609;BME280;65928;53.936;27.540;2022-12-20T08:20:15;99488.38;;;-2.34;70.59
76609;BME280;65928;53.936;27.540;2022-12-20T08:22:41;99183.25;;;-3.65;69.57
76609;BME280;65928;53.936;27.540;2022-12-20T08:25:07;99190.06;;;-3.74;69.82
76609;BME280;65928;53.936;27.540;2022-12-20T08:27:33;99548.31;;;-1.76;70.41
76609;BME280;65928;53.936;27.540;2022-12-20T08:29:58;99499.06;;;-1.83;70.31
76609;BME280;65928;53.936;27.540;2022-12-20T08:32:24;99511.19;;;-1.77;70.60
76609;BME280;65928;53.936;27.540;2022-12-20T08:34:51;99432.38;;;-2.24;70.64
76609;BME280;65928;53.936;27.540;2022-12-20T08:37:16;99169.41;;;-3.74;71.42
76609;BME280;65928;53.936;27.540;2022-12-20T08:39:42;99200.59;;;-3.48;71.12
76609;BME280;65928;53.936;27.540;2022-12-20T08:42:07;99419.44;;;-2.26;71.36
76609;BME280;65928;53.936;27.540;2022-12-20T08:44:33;99159.97;;;-3.72;71.03
76609;BME280;65928;53.936;27.540;2022-12-20T08:46:58;99188.34;;;-3.75;72.04
76609;BME280;65928;53.936;27.540;2022-12-20T08:49:24;99119.19;;;-4.15;71.26
76609;BME280;65928;53.936;27.540;2022-12-20T08:51:49;99275.06;;;-2.89;71.28
76609;BME280;65928;53.936;27.540;2022-12-20T08:54:15;99181.53;;;-3.63;71.12
76609;BME280;65928;53.936;27.540;2022-12-20T08:56:42;99402.16;;;-2.27;72.25
76609;BME280;65928;53.936;27.540;2022-12-20T08:59:07;99532.16;;;-1.30;70.51
76609;BME280;65928;53.936;27.540;2022-12-20T09:01:33;99528.56;;;-1.55;71.19
76609;BME280;65928;53.936;27.540;2022-12-20T09:03:59;99454.38;;;-1.32;70.95
76609;BME280;65928;53.936;27.540;2022-12-20T09:06:25;99133.28;;;-3.76;71.57
76609;BME280;65928;53.936;27.540;2022-12-20T09:08:51;99475.88;;;-1.58;71.24
76609;BME280;65928;53.936;27.540;2022-12-20T09:11:19;99485.44;;;-1.38;72.09
76609;BME280;65928;53.936;27.540;2022-12-20T09:13:47;99150.91;;;-3.02;70.89
76609;BME280;65928;53.936;27.540;2022-12-20T09:16:15;99294.41;;;-2.16;72.30
76609;BME280;65928;53.936;27.540;2022-12-20T09:18:42;99431.09;;;-1.14;71.45
76609;BME280;65928;53.936;27.540;2022-12-20T09:21:08;99512.38;;;-0.89;71.59
76609;BME280;65928;53.936;27.540;2022-12-20T09:23:35;99482.09;;;-1.11;72.13
76609;BME280;65928;53.936;27.540;2022-12-20T09:26:06;99482.94;;;-1.21;72.40
76609;BME280;65928;53.936;27.540;2022-12-20T09:28:33;99140.72;;;-2.69;70.91
76609;BME280;65928;53.936;27.540;2022-12-20T09:30:59;99470.06;;;-0.82;71.58
76609;BME280;65928;53.936;27.540;2022-12-20T09:33:26;99123.53;;;-2.44;70.57
76609;BME280;65928;53.936;27.540;2022-12-20T09:35:53;99470.06;;;-0.46;71.72
76609;BME280;65928;53.936;27.540;2022-12-20T09:38:19;99418.16;;;-0.56;71.22
76609;BME280;65928;53.936;27.540;2022-12-20T09:40:47;99495.13;;;-0.67;71.22
76609;BME280;65928;53.936;27.540;2022-12-20T09:43:15;99448.44;;;-0.46;71.70
76609;BME280;65928;53.936;27.540;2022-12-20T09:45:41;99255.66;;;-1.36;70.24
76609;BME280;65928;53.936;27.540;2022-12-20T09:48:16;99419.03;;;-0.94;70.68
76609;BME280;65928;53.936;27.540;2022-12-20T09:56:27;99447.53;;;-1.03;72.14
76609;BME280;65928;53.936;27.540;2022-12-20T09:59:09;99126.09;;;-2.55;71.45
76609;BME280;65928;53.936;27.540;2022-12-20T10:01:36;99463.13;;;-0.54;72.16
76609;BME280;65928;53.936;27.540;2022-12-20T10:04:11;99444.09;;;-0.34;71.76
76609;BME280;65928;53.936;27.540;2022-12-20T10:15:12;99477.84;;;-0.74;73.24
76609;BME280;65928;53.936;27.540;2022-12-20T10:25:53;99426.78;;;-0.35;72.00
76609;BME280;65928;53.936;27.540;2022-12-20T10:28:27;99318.75;;;-0.88;72.82
76609;BME280;65928;53.936;27.540;2022-12-20T10:30:53;99137.38;;;-1.62;72.44
76609;BME280;65928;53.936;27.540;2022-12-20T10:33:22;99086.47;;;-1.75;71.82
76609;BME280;65928;53.936;27.540;2022-12-20T10:35:49;99107.13;;;-1.48;72.02
76609;BME280;65928;53.936;27.540;2022-12-20T10:38:15;99382.63;;;-0.18;72.67
76609;BME280;65928;53.936;27.540;2022-12-20T10:40:59;99070.88;;;-1.60;70.44
76609;BME280;65928;53.936;27.540;2022-12-20T10:43:26;99379.91;;;0.18;70.63
76609;BME280;65928;53.936;27.540;2022-12-20T10:45:59;99064.91;;;-2.06;71.46
76609;BME280;65928;53.936;27.540;2022-12-20T10:51:30;99092.41;;;-1.30;71.33
76609;BME280;65928;53.936;27.540;2022-12-20T10:53:51;99372.16;;;0.05;72.21
76609;BME280;65928;53.936;27.540;2022-12-20T10:56:22;99252.19;;;-1.06;71.87
76609;BME280;65928;53.936;27.540;2022-12-20T10:58:53;99279.72;;;-0.43;71.93
76609;BME280;65928;53.936;27.540;2022-12-20T11:01:27;99323.84;;;-0.52;72.79
76609;BME280;65928;53.936;27.540;2022-12-20T11:06:42;99298.53;;;0.09;71.69
76609;BME280;65928;53.936;27.540;2022-12-20T11:14:22;99056.91;;;-1.05;72.26
76609;BME280;65928;53.936;27.540;2022-12-20T11:16:50;99342.34;;;0.73;71.21
76609;BME280;65928;53.936;27.540;2022-12-20T11:30:20;99308.63;;;0.60;71.28
76609;BME280;65928;53.936;27.540;2022-12-20T11:38:28;99340.47;;;0.90;71.33
76609;BME280;65928;53.936;27.540;2022-12-20T11:43:40;99371.81;;;0.75;71.95
76609;BME280;65928;53.936;27.540;2022-12-20T11:55:06;99321.81;;;1.42;70.21
76609;BME280;65928;53.936;27.540;2022-12-20T11:57:37;99323.75;;;1.22;71.04
76609;BME280;65928;53.936;27.540;2022-12-20T12:00:12;99321.97;;;1.28;71.41
76609;BME280;65928;53.936;27.540;2022-12-20T12:02:46;99356.69;;;1.26;71.70
76609;BME280;65928;53.936;27.540;2022-12-20T12:05:22;99259.94;;;0.78;71.69
76609;BME280;65928;53.936;27.540;2022-12-20T12:07:54;99292.56;;;1.16;71.59
76609;BME280;65928;53.936;27.540;2022-12-20T12:10:29;99278.53;;;1.32;71.03
76609;BME280;65928;53.936;27.540;2022-12-20T12:13:05;98999.31;;;-0.28;70.61
76609;BME280;65928;53.936;27.540;2022-12-20T12:18:05;99310.31;;;1.59;70.61
76609;BME280;65928;53.936;27.540;2022-12-20T12:23:11;99257.91;;;1.12;71.12
76609;BME280;65928;53.936;27.540;2022-12-20T12:25:40;99242.34;;;1.08;71.76
76609;BME280;65928;53.936;27.540;2022-12-20T12:28:06;98996.06;;;-0.56;71.62
76609;BME280;65928;53.936;27.540;2022-12-20T12:30:46;98995.28;;;-0.68;71.46
76609;BME280;65928;53.936;27.540;2022-12-20T12:33:20;99199.44;;;0.60;71.89
76609;BME280;65928;53.936;27.540;2022-12-20T12:44:50;99127.00;;;0.22;72.19
76609;BME280;65928;53.936;27.540;2022-12-20T12:47:26;99198.56;;;0.59;72.51
76609;BME280;65928;53.936;27.540;2022-12-20T12:49:55;99027.06;;;-0.38;72.77
76609;BME280;65928;53.936;27.540;2022-12-20T12:52:35;99259.09;;;0.76;73.61
76609;BME280;65928;53.936;27.540;2022-12-20T12:55:38;99312.63;;;1.02;73.48
76609;BME280;65928;53.936;27.540;2022-12-20T12:58:29;99312.72;;;0.93;74.88
76609;BME280;65928;53.936;27.540;2022-12-20T13:01:04;99336.75;;;1.19;73.81
76609;BME280;65928;53.936;27.540;2022-12-20T13:16:52;99267.47;;;1.10;73.74
76609;BME280;65928;53.936;27.540;2022-12-20T13:21:55;98983.81;;;-0.37;73.13
76609;BME280;65928;53.936;27.540;2022-12-20T13:37:55;99296.25;;;1.77;72.77
76609;BME280;65928;53.936;27.540;2022-12-20T13:40:34;99270.06;;;1.88;72.59
76609;BME280;65928;53.936;27.540;2022-12-20T13:45:46;99215.44;;;1.81;72.10
76609;BME280;65928;53.936;27.540;2022-12-20T13:48:16;99261.16;;;2.05;72.01
76609;BME280;65928;53.936;27.540;2022-12-20T13:50:49;99215.50;;;1.77;70.94
76609;BME280;65928;53.936;27.540;2022-12-20T13:53:21;99002.00;;;0.48;71.53
76609;BME280;65928;53.936;27.540;2022-12-20T13:55:48;99249.88;;;2.03;71.78
76609;BME280;65928;53.936;27.540;2022-12-20T13:58:27;99271.69;;;1.98;71.32
76609;BME280;65928;53.936;27.540;2022-12-20T14:01:04;99183.41;;;1.76;71.37
76609;BME280;65928;53.936;27.540;2022-12-20T14:03:31;99227.13;;;2.14;70.60
76609;BME280;65928;53.936;27.540;2022-12-20T14:06:02;99189.34;;;1.86;71.23
76609;BME280;65928;53.936;27.540;2022-12-20T14:08:33;99009.38;;;0.82;71.32
76609;BME280;65928;53.936;27.540;2022-12-20T14:11:26;99298.78;;;2.48;71.46
76609;BME280;65928;53.936;27.540;2022-12-20T14:14:00;98996.41;;;0.78;71.08
76609;BME280;65928;53.936;27.540;2022-12-20T14:16:31;99274.97;;;2.12;71.99
76609;BME280;65928;53.936;27.540;2022-12-20T14:19:12;99247.34;;;1.99;72.32
76609;BME280;65928;53.936;27.540;2022-12-20T14:21:41;99277.44;;;2.21;72.08
76609;BME280;65928;53.936;27.540;2022-12-20T14:24:14;99280.88;;;2.24;72.62
76609;BME280;65928;53.936;27.540;2022-12-20T14:26:43;99227.31;;;2.02;72.39
76609;BME280;65928;53.936;27.540;2022-12-20T14:29:11;99011.38;;;0.61;72.13
76609;BME280;65928;53.936;27.540;2022-12-20T14:31:45;99325.75;;;2.46;72.60
76609;BME280;65928;53.936;27.540;2022-12-20T14:34:17;99337.88;;;2.50;72.54
76609;BME280;65928;53.936;27.540;2022-12-20T14:36:46;98985.19;;;0.77;71.94
76609;BME280;65928;53.936;27.540;2022-12-20T14:42:33;98993.91;;;0.72;72.68
76609;BME280;65928;53.936;27.540;2022-12-20T14:45:16;98977.56;;;0.61;72.35
76609;BME280;65928;53.936;27.540;2022-12-20T14:48:04;99259.06;;;2.30;72.59
76609;BME280;65928;53.936;27.540;2022-12-20T14:50:35;99313.34;;;2.63;72.03
76609;BME280;65928;53.936;27.540;2022-12-20T14:53:01;99262.19;;;2.53;72.29
76609;BME280;65928;53.936;27.540;2022-12-20T14:55:33;99064.16;;;1.37;72.45
76609;BME280;65928;53.936;27.540;2022-12-20T14:58:05;98982.47;;;0.85;72.01
76609;BME280;65928;53.936;27.540;2022-12-20T15:00:33;99232.47;;;2.07;73.01
76609;BME280;65928;53.936;27.540;2022-12-20T15:03:02;99164.47;;;1.62;73.81
76609;BME280;65928;53.936;27.540;2022-12-20T15:10:35;98983.41;;;0.79;72.59